M/V Alton St. Amant — WDE7604 — position and weather

sailwx.info

Track history (hours):
 
Tides and Currents Weather Stations Pressure Air Temp Water Temp Dewpoint Dewpoint Depression Visibility Wind Speed Wind Dir Waves Ship Positions

M/V Alton St. Amant

Owner: The Barge Investment Group Five, L.L.C., Harahan, LA. More information available from US FCC via Universal Licensing System and Coast Guard Vessel Documentation Center.

Last reported at 2016-Sep-20 14:33 UTC. Time now 2016-Sep-26 03:44 UTC.
Position N 29°56' W 093°52'.

Length 25 m; draft 2.7 m.

Type: Towing. MMSI: 367395270.

Date/timePositionNaut miles runAvg speedWind from/ knotsBaromVisibWave heightAir tempDewpointWater temp
2016-Sep-20 14:33N 29°56' W 093°52'  
2016-Sep-14 22:31N 29°35' W 094°56'8 7.5
2016-Sep-14 21:31N 29°42' W 095°01'6 0.1
2016-Sep-12 21:26N 29°45' W 095°06'8 4.3
2016-Sep-12 19:33N 29°40' W 094°59'81 4.5
2016-Sep-12 01:34N 30°04' W 093°29'8 4.2
2016-Sep-11 23:33N 30°05' W 093°20'3 3.3
2016-Sep-11 22:33N 30°04' W 093°16'4 4.3
2016-Sep-11 21:34N 30°00' W 093°14'5 4.9
2016-Sep-11 20:34N 29°57' W 093°10'5 5.1
2016-Sep-11 19:33N 29°56' W 093°04'38 4.7
2016-Sep-11 11:33N 29°51' W 092°21'4 4.0
2016-Sep-11 10:33N 29°49' W 092°17'9 4.4
2016-Sep-11 08:33N 29°48' W 092°07'5 5.1
2016-Sep-11 07:32N 29°49' W 092°01'58 4.7
2016-Sep-10 19:19N 29°34' W 090°57'5 5.4
2016-Sep-10 18:21N 29°32' W 090°51'4 5.4
2016-Sep-10 17:33N 29°32' W 090°46'4 4.1
2016-Sep-10 16:33N 29°35' W 090°43'3 2.7
2016-Sep-10 15:33N 29°36' W 090°40'4 4.3
2016-Sep-10 14:33N 29°35' W 090°35'  
Track history (hours):
 
Tides and Currents Weather Stations Pressure Air Temp Water Temp Dewpoint Dewpoint Depression Visibility Wind Speed Wind Dir Waves Ship Positions

M/V Alton St. Amant

Owner: The Barge Investment Group Five, L.L.C., Harahan, LA. More information available from US FCC via Universal Licensing System and Coast Guard Vessel Documentation Center.

Last reported at 2016-Sep-20 14:33 UTC. Time now 2016-Sep-26 03:44 UTC.
Position N 29°56' W 093°52'.

Length 25 m; draft 2.7 m.

Type: Towing. MMSI: 367395270.

Date/timePositionNaut miles runAvg speedWind from/ knotsBaromVisibWave heightAir tempDewpointWater temp
2016-Sep-20 14:33N 29°56' W 093°52'  
2016-Sep-14 22:31N 29°35' W 094°56'8 7.5
2016-Sep-14 21:31N 29°42' W 095°01'6 0.1
2016-Sep-12 21:26N 29°45' W 095°06'8 4.3
2016-Sep-12 19:33N 29°40' W 094°59'81 4.5
2016-Sep-12 01:34N 30°04' W 093°29'8 4.2
2016-Sep-11 23:33N 30°05' W 093°20'3 3.3
2016-Sep-11 22:33N 30°04' W 093°16'4 4.3
2016-Sep-11 21:34N 30°00' W 093°14'5 4.9
2016-Sep-11 20:34N 29°57' W 093°10'5 5.1
2016-Sep-11 19:33N 29°56' W 093°04'38 4.7
2016-Sep-11 11:33N 29°51' W 092°21'4 4.0
2016-Sep-11 10:33N 29°49' W 092°17'9 4.4
2016-Sep-11 08:33N 29°48' W 092°07'5 5.1
2016-Sep-11 07:32N 29°49' W 092°01'58 4.7
2016-Sep-10 19:19N 29°34' W 090°57'5 5.4
2016-Sep-10 18:21N 29°32' W 090°51'4 5.4
2016-Sep-10 17:33N 29°32' W 090°46'4 4.1
2016-Sep-10 16:33N 29°35' W 090°43'3 2.7
2016-Sep-10 15:33N 29°36' W 090°40'4 4.3
2016-Sep-10 14:33N 29°35' W 090°35'  

Dump ship's entire track history